createdAt,value
2022-10-02T00:01:10.035Z,13.00
2022-10-02T00:03:37.189Z,13.10
2022-10-02T00:06:07.154Z,13.10
2022-10-02T00:08:35.299Z,13.00
2022-10-02T00:11:08.279Z,13.00
2022-10-02T00:14:12.757Z,13.00
2022-10-02T00:16:50.017Z,13.10
2022-10-02T00:19:17.978Z,13.00
2022-10-02T00:22:12.453Z,13.00
2022-10-02T00:24:43.634Z,13.00
2022-10-02T00:27:40.692Z,13.00
2022-10-02T00:30:14.037Z,12.90
2022-10-02T00:32:59.018Z,12.90
2022-10-02T00:35:55.296Z,12.90
2022-10-02T00:38:45.303Z,12.90
2022-10-02T00:42:05.951Z,12.90
2022-10-02T00:52:36.570Z,12.90
2022-10-02T00:55:43.399Z,12.90
2022-10-02T01:01:47.379Z,12.90
2022-10-02T01:04:29.236Z,12.90
2022-10-02T01:06:56.056Z,12.90
2022-10-02T01:09:23.329Z,13.00
2022-10-02T01:11:50.735Z,13.00
2022-10-02T01:14:16.944Z,13.00
2022-10-02T01:16:44.571Z,13.00
2022-10-02T01:19:37.926Z,13.00
2022-10-02T01:22:31.209Z,13.00
2022-10-02T01:24:58.172Z,13.00
2022-10-02T01:27:24.503Z,12.50
2022-10-02T01:30:04.206Z,13.00
2022-10-02T01:32:31.318Z,13.10
2022-10-02T01:34:57.803Z,13.00
2022-10-02T01:37:31.166Z,13.00
2022-10-02T01:39:59.480Z,13.00
2022-10-02T01:42:27.181Z,12.90
2022-10-02T01:44:53.382Z,12.90
2022-10-02T01:47:28.742Z,12.90
2022-10-02T01:50:59.220Z,12.90
2022-10-02T01:53:50.824Z,12.90
2022-10-02T01:56:39.890Z,12.90
2022-10-02T01:59:33.667Z,12.80
2022-10-02T02:03:21.235Z,12.80
2022-10-02T02:05:53.178Z,12.80
2022-10-02T02:08:49.318Z,12.70
2022-10-02T02:11:20.228Z,12.80
2022-10-02T02:14:48.692Z,12.80
2022-10-02T02:17:21.263Z,12.80
2022-10-02T02:19:56.130Z,12.80
2022-10-02T02:22:24.112Z,14.90
2022-10-02T02:25:36.273Z,12.80
2022-10-02T02:28:05.538Z,12.70
2022-10-02T02:30:31.718Z,12.70
2022-10-02T02:33:01.989Z,12.70
2022-10-02T02:35:37.457Z,12.80
2022-10-02T02:38:06.892Z,12.70
2022-10-02T02:40:36.383Z,12.70
2022-10-02T02:43:08.436Z,12.70
2022-10-02T02:45:43.851Z,12.70
2022-10-02T02:48:19.283Z,12.70
2022-10-02T02:51:31.501Z,12.70
2022-10-02T02:55:54.102Z,12.80
2022-10-02T02:58:59.788Z,12.80
2022-10-02T03:01:26.023Z,12.70
2022-10-02T03:03:53.122Z,12.70
2022-10-02T03:06:32.989Z,12.70
2022-10-02T03:08:59.672Z,12.60
2022-10-02T03:12:25.554Z,12.50
2022-10-02T03:15:14.916Z,12.40
2022-10-02T03:20:43.737Z,12.40
2022-10-02T03:23:43.118Z,12.40
2022-10-02T03:26:26.769Z,12.50
2022-10-02T03:28:58.678Z,12.50
2022-10-02T03:31:26.871Z,12.50
2022-10-02T03:33:53.151Z,12.50
2022-10-02T03:36:20.925Z,12.60
2022-10-02T03:39:00.762Z,12.60
2022-10-02T03:41:39.458Z,12.60
2022-10-02T03:44:06.043Z,12.60
2022-10-02T03:46:32.356Z,12.50
2022-10-02T03:48:58.605Z,12.50
2022-10-02T03:51:24.787Z,12.50
2022-10-02T03:53:51.826Z,12.50
2022-10-02T03:56:29.973Z,12.40
2022-10-02T03:58:59.042Z,12.40
2022-10-02T04:01:32.192Z,12.40
2022-10-02T04:04:37.188Z,12.40
2022-10-02T04:07:04.558Z,12.40
2022-10-02T04:11:14.405Z,12.30
2022-10-02T04:13:55.788Z,12.30
2022-10-02T04:17:58.770Z,12.10
2022-10-02T04:23:33.632Z,12.10
2022-10-02T04:26:04.521Z,12.10
2022-10-02T04:28:54.125Z,12.20
2022-10-02T04:31:21.143Z,12.20
2022-10-02T04:33:48.576Z,12.20
2022-10-02T04:39:10.772Z,12.20
2022-10-02T04:41:51.661Z,12.20
2022-10-02T04:45:17.457Z,12.30
2022-10-02T04:51:34.272Z,12.20
2022-10-02T04:56:11.125Z,12.20
2022-10-02T05:00:45.716Z,12.20
2022-10-02T05:04:50.957Z,12.30
2022-10-02T05:13:57.236Z,12.30
2022-10-02T05:16:56.292Z,12.50
2022-10-02T05:22:24.355Z,12.50
2022-10-02T05:28:27.280Z,12.70
2022-10-02T05:34:10.437Z,14.40
2022-10-02T05:37:07.403Z,13.00
2022-10-02T05:39:37.367Z,13.10
2022-10-02T05:42:30.634Z,13.20
2022-10-02T05:45:02.676Z,13.20
2022-10-02T05:47:30.990Z,13.00
2022-10-02T05:51:02.693Z,13.00
2022-10-02T05:53:38.499Z,13.00
2022-10-02T05:56:13.446Z,13.00
2022-10-02T05:58:46.217Z,13.10
2022-10-02T06:01:22.714Z,13.20
2022-10-02T06:04:03.359Z,13.50
2022-10-02T06:06:42.435Z,13.60
2022-10-02T06:09:20.105Z,13.40
2022-10-02T06:11:59.151Z,13.30
2022-10-02T06:14:50.568Z,13.20
2022-10-02T06:17:32.540Z,13.30
2022-10-02T06:20:21.467Z,13.20
2022-10-02T06:22:51.500Z,15.50
2022-10-02T06:25:36.515Z,13.50
2022-10-02T06:28:14.535Z,13.70
2022-10-02T06:30:43.419Z,14.40
2022-10-02T06:33:22.484Z,15.10
2022-10-02T06:38:44.860Z,15.20
2022-10-02T06:41:46.643Z,15.00
2022-10-02T06:46:10.826Z,14.80
2022-10-02T06:51:41.992Z,15.30
2022-10-02T07:01:55.081Z,15.40
2022-10-02T07:04:43.572Z,15.00
2022-10-02T07:10:48.733Z,14.70
2022-10-02T07:17:06.850Z,14.80
2022-10-02T07:22:43.476Z,15.10
2022-10-02T07:27:31.517Z,15.20
2022-10-02T07:30:05.810Z,15.90
2022-10-02T07:33:05.798Z,16.10
2022-10-02T07:35:39.352Z,16.70
2022-10-02T07:38:22.882Z,16.50
2022-10-02T07:41:08.901Z,16.10
2022-10-02T07:46:55.068Z,16.00
2022-10-02T07:50:39.085Z,15.90
2022-10-02T07:54:56.285Z,15.70
2022-10-02T07:57:37.495Z,15.30
2022-10-02T08:00:12.038Z,14.70
2022-10-02T08:06:11.152Z,14.50
2022-10-02T08:09:02.092Z,14.70
2022-10-02T08:11:39.373Z,15.10
2022-10-02T08:14:26.064Z,15.60
2022-10-02T08:16:56.876Z,16.30
2022-10-02T08:21:16.415Z,16.30
2022-10-02T08:24:01.070Z,16.20
2022-10-02T08:26:35.799Z,16.20
2022-10-02T08:30:06.241Z,15.80
2022-10-02T08:32:35.538Z,15.80
2022-10-02T08:35:11.697Z,17.20
2022-10-02T08:40:46.254Z,18.30
2022-10-02T08:45:01.764Z,17.80
2022-10-02T08:57:51.941Z,16.90
2022-10-02T09:00:48.659Z,16.60
2022-10-02T09:16:52.204Z,16.10
2022-10-02T09:20:47.803Z,18.20
2022-10-02T09:26:58.276Z,17.60
2022-10-02T09:30:14.029Z,18.70
2022-10-02T09:44:36.512Z,19.10
2022-10-02T09:55:30.647Z,19.40
2022-10-02T09:58:32.138Z,19.10
2022-10-02T10:02:48.881Z,18.40
2022-10-02T10:07:59.977Z,18.80
2022-10-02T10:11:11.186Z,18.50
2022-10-02T10:15:24.669Z,18.60
2022-10-02T10:18:28.567Z,18.80
2022-10-02T10:21:34.534Z,19.70
2022-10-02T10:24:29.898Z,20.00
2022-10-02T10:29:15.778Z,20.00
2022-10-02T10:33:40.140Z,20.50
2022-10-02T10:37:12.136Z,21.20
2022-10-02T10:39:58.605Z,21.40
2022-10-02T10:47:07.366Z,21.40
2022-10-02T10:51:18.978Z,20.90
2022-10-02T10:54:12.288Z,22.60
2022-10-02T10:59:42.357Z,21.00
2022-10-02T11:03:57.635Z,21.10
2022-10-02T11:09:46.875Z,22.40
2022-10-02T11:14:26.857Z,22.10
2022-10-02T11:18:55.376Z,20.10
2022-10-02T11:22:48.398Z,19.60
2022-10-02T11:26:09.740Z,18.90
2022-10-02T11:30:24.007Z,18.30
2022-10-02T11:36:13.863Z,18.10
2022-10-02T11:42:11.254Z,17.90
2022-10-02T11:45:38.902Z,18.10
2022-10-02T11:49:43.784Z,18.10
2022-10-02T11:53:57.559Z,18.10
2022-10-02T11:58:22.762Z,18.20
2022-10-02T12:03:39.363Z,18.20
2022-10-02T12:06:44.077Z,18.60
2022-10-02T12:09:26.347Z,18.50
2022-10-02T12:12:39.580Z,18.90
2022-10-02T12:15:27.058Z,18.60
2022-10-02T12:21:23.698Z,19.40
2022-10-02T12:25:45.762Z,19.00
2022-10-02T12:28:38.873Z,18.80
2022-10-02T12:34:01.660Z,18.40
2022-10-02T12:37:21.153Z,18.20
2022-10-02T12:40:08.744Z,17.90
2022-10-02T12:43:01.423Z,17.90
2022-10-02T12:50:03.121Z,17.80
2022-10-02T12:54:09.120Z,17.80
2022-10-02T12:58:22.796Z,17.50
2022-10-02T13:05:27.398Z,17.40
2022-10-02T13:09:37.138Z,17.30
2022-10-02T13:12:24.362Z,17.20
2022-10-02T13:18:02.494Z,16.90
2022-10-02T13:21:04.578Z,17.20
2022-10-02T13:24:28.640Z,17.80
2022-10-02T13:27:37.478Z,17.90
2022-10-02T13:32:52.292Z,17.70
2022-10-02T13:35:36.197Z,17.60
2022-10-02T13:38:39.612Z,17.50
2022-10-02T13:42:40.587Z,17.50
2022-10-02T13:45:31.219Z,17.60
2022-10-02T13:50:07.907Z,17.80
2022-10-02T13:55:57.117Z,17.90
2022-10-02T14:00:01.198Z,17.60
2022-10-02T14:03:04.327Z,17.70
2022-10-02T14:06:06.660Z,17.90
2022-10-02T14:10:13.769Z,17.90
2022-10-02T14:14:35.753Z,17.90
2022-10-02T14:17:24.433Z,17.90
2022-10-02T14:21:37.447Z,17.70
2022-10-02T14:25:03.567Z,17.60
2022-10-02T14:34:32.086Z,17.60
2022-10-02T14:37:29.499Z,16.90
2022-10-02T14:39:57.888Z,16.80
2022-10-02T14:42:45.035Z,16.70
2022-10-02T14:45:45.810Z,16.60
2022-10-02T14:49:13.461Z,16.50
2022-10-02T15:00:05.015Z,16.40
2022-10-02T15:03:28.043Z,15.90
2022-10-02T15:06:23.343Z,15.60
2022-10-02T15:10:39.184Z,15.40
2022-10-02T15:13:10.459Z,15.30
2022-10-02T15:16:28.645Z,15.20
2022-10-02T15:19:23.361Z,15.00
2022-10-02T15:22:14.099Z,14.80
2022-10-02T15:24:44.117Z,14.40
2022-10-02T15:27:42.303Z,14.20
2022-10-02T15:30:22.717Z,14.10
2022-10-02T15:33:12.756Z,14.20
2022-10-02T15:42:06.762Z,14.30
2022-10-02T15:44:56.611Z,14.00
2022-10-02T15:49:16.321Z,13.80
2022-10-02T15:53:36.294Z,13.50
2022-10-02T15:56:28.841Z,13.20
2022-10-02T15:59:29.652Z,13.00
2022-10-02T16:11:53.182Z,12.80
2022-10-02T16:14:52.007Z,12.50
2022-10-02T16:18:07.438Z,12.30
2022-10-02T16:21:09.767Z,12.20
2022-10-02T16:24:21.074Z,12.20
2022-10-02T16:33:50.625Z,12.20
2022-10-02T16:36:32.002Z,12.20
2022-10-02T16:45:28.840Z,12.20
2022-10-02T16:48:20.744Z,12.10
2022-10-02T16:51:12.273Z,12.00
2022-10-02T16:54:35.524Z,12.00
2022-10-02T16:57:13.838Z,12.00
2022-10-02T17:04:40.121Z,11.90
2022-10-02T17:07:35.579Z,11.80
2022-10-02T17:10:19.664Z,11.80
2022-10-02T17:14:25.160Z,11.70
2022-10-02T17:17:00.522Z,11.70
2022-10-02T17:20:47.721Z,11.60
2022-10-02T17:23:33.010Z,11.60
2022-10-02T17:26:33.388Z,11.50
2022-10-02T17:30:33.498Z,11.50
2022-10-02T17:33:22.911Z,11.50
2022-10-02T17:36:00.753Z,11.40
2022-10-02T17:39:01.164Z,11.40
2022-10-02T17:43:00.004Z,11.40
2022-10-02T17:46:53.441Z,11.30
2022-10-02T17:49:45.375Z,11.30
2022-10-02T17:52:45.806Z,11.30
2022-10-02T17:56:03.730Z,11.30
2022-10-02T17:59:17.937Z,11.30
2022-10-02T18:02:01.579Z,11.30
2022-10-02T18:04:57.436Z,11.30
2022-10-02T18:10:51.541Z,11.30
2022-10-02T18:18:33.338Z,11.40
2022-10-02T18:24:41.814Z,11.50
2022-10-02T18:32:35.537Z,11.40
2022-10-02T18:35:47.322Z,11.40
2022-10-02T18:38:31.425Z,11.50
2022-10-02T18:41:40.619Z,11.40
2022-10-02T18:44:22.685Z,11.40
2022-10-02T18:47:14.347Z,11.30
2022-10-02T18:50:22.926Z,11.30
2022-10-02T18:53:09.850Z,11.50
2022-10-02T18:57:20.854Z,11.40
2022-10-02T19:00:08.347Z,11.20
2022-10-02T19:03:15.489Z,11.20
2022-10-02T19:05:50.414Z,11.30
2022-10-02T19:08:25.192Z,11.30
2022-10-02T19:10:52.123Z,11.40
2022-10-02T19:13:34.279Z,11.40
2022-10-02T19:16:19.235Z,11.50
2022-10-02T19:18:47.483Z,11.50
2022-10-02T19:21:18.599Z,11.60
2022-10-02T19:24:03.798Z,11.60
2022-10-02T19:26:34.001Z,11.60
2022-10-02T19:29:07.329Z,11.70
2022-10-02T19:31:40.973Z,11.70
2022-10-02T19:34:18.812Z,11.70
2022-10-02T19:36:52.778Z,11.60
2022-10-02T19:39:32.005Z,11.60
2022-10-02T19:42:17.158Z,11.60
2022-10-02T19:44:48.808Z,11.70
2022-10-02T19:47:42.273Z,11.60
2022-10-02T19:52:01.408Z,11.50
2022-10-02T19:54:36.372Z,11.40
2022-10-02T19:57:14.717Z,11.40
2022-10-02T19:59:59.366Z,11.30
2022-10-02T20:02:37.625Z,11.30
2022-10-02T20:05:07.290Z,11.20
2022-10-02T20:07:36.078Z,11.10
2022-10-02T20:10:18.392Z,11.00
2022-10-02T20:12:59.293Z,11.00
2022-10-02T20:16:40.457Z,10.90
2022-10-02T20:19:08.977Z,10.80
2022-10-02T20:21:40.895Z,10.70
2022-10-02T20:25:29.875Z,10.70
2022-10-02T20:29:29.949Z,10.50
2022-10-02T20:32:09.425Z,10.50
2022-10-02T20:34:55.413Z,10.50
2022-10-02T20:37:29.245Z,10.60
2022-10-02T20:40:04.576Z,10.50
2022-10-02T20:42:36.244Z,10.50
2022-10-02T20:45:04.102Z,10.50
2022-10-02T20:49:06.337Z,10.40
2022-10-02T21:03:25.850Z,10.40
2022-10-02T21:07:18.259Z,10.30
2022-10-02T21:11:56.913Z,10.30
2022-10-02T21:19:24.742Z,10.30
2022-10-02T21:24:00.225Z,10.30
2022-10-02T21:26:55.177Z,10.30
2022-10-02T21:29:52.554Z,10.30
2022-10-02T21:33:05.032Z,10.30
2022-10-02T21:35:57.924Z,10.30
2022-10-02T21:42:17.002Z,10.30
2022-10-02T21:48:10.091Z,10.20
2022-10-02T21:51:01.617Z,10.20
2022-10-02T21:56:57.309Z,10.20
2022-10-02T22:06:31.049Z,10.10
2022-10-02T22:10:06.134Z,10.20
2022-10-02T22:13:05.480Z,10.20
2022-10-02T22:16:03.998Z,10.30
2022-10-02T22:18:49.204Z,10.50
2022-10-02T22:21:31.538Z,10.50
2022-10-02T22:24:31.278Z,10.60
2022-10-02T22:27:27.132Z,10.60
2022-10-02T22:29:56.757Z,10.60
2022-10-02T22:34:01.022Z,10.70
2022-10-02T22:44:00.841Z,10.70
2022-10-02T22:46:51.232Z,10.70
2022-10-02T22:50:52.820Z,10.70
2022-10-02T22:53:30.770Z,10.80
2022-10-02T22:55:57.164Z,10.80
2022-10-02T22:58:42.150Z,10.80
2022-10-02T23:02:56.457Z,10.80
2022-10-02T23:07:14.277Z,10.80
2022-10-02T23:12:49.821Z,10.90
2022-10-02T23:15:48.599Z,10.90
2022-10-02T23:18:40.752Z,10.90
2022-10-02T23:22:05.569Z,10.90
2022-10-02T23:24:35.874Z,10.90
2022-10-02T23:27:13.814Z,10.80
2022-10-02T23:30:15.460Z,10.90
2022-10-02T23:37:52.327Z,10.90
2022-10-02T23:41:53.340Z,11.00
2022-10-02T23:47:11.554Z,11.00
2022-10-02T23:49:45.977Z,10.90
2022-10-02T23:54:01.260Z,10.90
2022-10-02T23:58:03.258Z,10.80
